KMLI/MLI METAR and TAF weather

Enter ICAO airport designator
Station Type Date Time Source
KMLI METAR 2019/10/23 20:52 UTC NOAA

KMLI 232052Z 18010KT 10SM FEW100 FEW110 15/05 A2983 RMK AO2 SLP103 T01500050 55017


Station Type Date Time Source
KMLI Decoded METAR 2019/10/23 20:52 UTC NOAA

MOLINE QUAD-CITY AIRPORT, IL, United States (KMLI) 41-27N 90-31W 184M
Oct 23, 2019 - 04:52 PM EDT / 2019.10.23 2052 UTC
Wind: from the S (180 degrees) at 12 MPH (10 KT):0
Visibility: 10 mile(s):0
Sky conditions: mostly clear
Temperature: 59.0 F (15.0 C)
Dew Point: 41.0 F (5.0 C)
Relative Humidity: 51%
Pressure (altimeter): 29.83 in. Hg (1010 hPa)
Pressure tendency: 0.05 inches (1.7 hPa) lower than three hours ago
ob: KMLI 232052Z 18010KT 10SM FEW100 FEW110 15/05 A2983 RMK AO2 SLP103 T01500050 55017
cycle: 21

Station Type Date Time Source
KMLI TAF 2019/10/23 20:30 UTC NOAA

TAF
AMD KMLI 232028Z 2320/2418 13010KT P6SM SCT050
FM240000 34009KT P6SM BKN050
FM241400 34005KT P6SM BKN250

Example: see airport list